sensor_id;sensor_type;location;lat;lon;timestamp;pressure;altitude;pressure_sealevel;temperature;humidity
30516;BME280;17297;54.022;10.760;2024-03-06T00:02:10;102128.63;;;5.94;75.13
30516;BME280;17297;54.022;10.760;2024-03-06T00:04:36;102124.00;;;5.96;74.99
30516;BME280;17297;54.022;10.760;2024-03-06T00:07:02;102121.91;;;5.99;74.86
30516;BME280;17297;54.022;10.760;2024-03-06T00:09:27;102137.00;;;5.89;74.82
30516;BME280;17297;54.022;10.760;2024-03-06T00:11:53;102136.75;;;5.92;74.46
30516;BME280;17297;54.022;10.760;2024-03-06T00:14:19;102135.38;;;5.98;74.45
30516;BME280;17297;54.022;10.760;2024-03-06T00:16:47;102140.47;;;6.01;74.45
30516;BME280;17297;54.022;10.760;2024-03-06T00:19:12;102137.53;;;6.04;74.51
30516;BME280;17297;54.022;10.760;2024-03-06T00:21:38;102153.31;;;6.07;74.31
30516;BME280;17297;54.022;10.760;2024-03-06T00:24:04;102141.66;;;6.08;74.05
30516;BME280;17297;54.022;10.760;2024-03-06T00:26:29;102144.19;;;6.10;73.48
30516;BME280;17297;54.022;10.760;2024-03-06T00:28:55;102142.97;;;6.14;73.34
30516;BME280;17297;54.022;10.760;2024-03-06T00:31:20;102153.19;;;6.09;72.94
30516;BME280;17297;54.022;10.760;2024-03-06T00:33:45;102152.09;;;6.11;73.04
30516;BME280;17297;54.022;10.760;2024-03-06T00:36:11;102147.00;;;6.08;72.95
30516;BME280;17297;54.022;10.760;2024-03-06T00:38:36;102146.75;;;6.11;73.04
30516;BME280;17297;54.022;10.760;2024-03-06T00:41:02;102152.94;;;6.12;73.05
30516;BME280;17297;54.022;10.760;2024-03-06T00:43:27;102153.78;;;6.12;73.17
30516;BME280;17297;54.022;10.760;2024-03-06T00:45:53;102160.94;;;6.12;72.85
30516;BME280;17297;54.022;10.760;2024-03-06T00:48:18;102155.72;;;6.10;72.96
30516;BME280;17297;54.022;10.760;2024-03-06T00:50:45;102161.41;;;6.17;72.80
30516;BME280;17297;54.022;10.760;2024-03-06T00:53:10;102160.81;;;6.13;72.85
30516;BME280;17297;54.022;10.760;2024-03-06T00:55:36;102162.06;;;6.09;72.98
30516;BME280;17297;54.022;10.760;2024-03-06T00:58:01;102161.06;;;6.10;72.66
30516;BME280;17297;54.022;10.760;2024-03-06T01:00:27;102156.34;;;6.14;72.70
30516;BME280;17297;54.022;10.760;2024-03-06T01:02:53;102156.34;;;6.14;72.21
30516;BME280;17297;54.022;10.760;2024-03-06T01:05:18;102155.34;;;6.15;72.24
30516;BME280;17297;54.022;10.760;2024-03-06T01:07:43;102157.19;;;6.14;72.17
30516;BME280;17297;54.022;10.760;2024-03-06T01:10:09;102155.09;;;6.18;72.27
30516;BME280;17297;54.022;10.760;2024-03-06T01:12:35;102160.28;;;6.19;72.26
30516;BME280;17297;54.022;10.760;2024-03-06T01:15:00;102166.09;;;6.24;72.30
30516;BME280;17297;54.022;10.760;2024-03-06T01:17:25;102159.66;;;6.27;72.10
30516;BME280;17297;54.022;10.760;2024-03-06T01:19:51;102160.34;;;6.29;71.92
30516;BME280;17297;54.022;10.760;2024-03-06T01:22:17;102163.75;;;6.31;71.76
30516;BME280;17297;54.022;10.760;2024-03-06T01:24:43;102171.41;;;6.36;71.78
30516;BME280;17297;54.022;10.760;2024-03-06T01:27:09;102170.53;;;6.35;71.54
30516;BME280;17297;54.022;10.760;2024-03-06T01:29:34;102164.06;;;6.38;71.66
30516;BME280;17297;54.022;10.760;2024-03-06T01:32:00;102167.72;;;6.37;71.17
30516;BME280;17297;54.022;10.760;2024-03-06T01:34:29;102166.63;;;6.39;71.30
30516;BME280;17297;54.022;10.760;2024-03-06T01:36:55;102169.31;;;6.39;71.26
30516;BME280;17297;54.022;10.760;2024-03-06T01:39:21;102171.84;;;6.41;71.02
30516;BME280;17297;54.022;10.760;2024-03-06T01:41:47;102172.66;;;6.41;71.05
30516;BME280;17297;54.022;10.760;2024-03-06T01:44:17;102180.56;;;6.43;70.82
30516;BME280;17297;54.022;10.760;2024-03-06T01:46:44;102185.19;;;6.41;70.68
30516;BME280;17297;54.022;10.760;2024-03-06T01:49:12;102183.63;;;6.38;70.50
30516;BME280;17297;54.022;10.760;2024-03-06T01:51:42;102188.00;;;6.39;70.49
30516;BME280;17297;54.022;10.760;2024-03-06T01:54:10;102193.38;;;6.39;70.50
30516;BME280;17297;54.022;10.760;2024-03-06T01:56:38;102194.31;;;6.38;70.28
30516;BME280;17297;54.022;10.760;2024-03-06T01:59:07;102194.19;;;6.40;70.44
30516;BME280;17297;54.022;10.760;2024-03-06T02:01:32;102201.38;;;6.39;70.32
30516;BME280;17297;54.022;10.760;2024-03-06T02:03:59;102193.38;;;6.39;70.50
30516;BME280;17297;54.022;10.760;2024-03-06T02:06:25;102198.56;;;6.41;70.40
30516;BME280;17297;54.022;10.760;2024-03-06T02:08:51;102195.78;;;6.42;70.56
30516;BME280;17297;54.022;10.760;2024-03-06T02:11:16;102193.94;;;6.43;70.42
30516;BME280;17297;54.022;10.760;2024-03-06T02:13:43;102194.66;;;6.45;70.33
30516;BME280;17297;54.022;10.760;2024-03-06T02:16:09;102192.13;;;6.43;70.25
30516;BME280;17297;54.022;10.760;2024-03-06T02:18:35;102194.78;;;6.43;70.08
30516;BME280;17297;54.022;10.760;2024-03-06T02:21:02;102199.28;;;6.43;70.37
30516;BME280;17297;54.022;10.760;2024-03-06T02:23:27;102197.59;;;6.42;70.20
30516;BME280;17297;54.022;10.760;2024-03-06T02:25:52;102189.44;;;6.43;70.47
30516;BME280;17297;54.022;10.760;2024-03-06T02:28:18;102200.97;;;6.44;70.32
30516;BME280;17297;54.022;10.760;2024-03-06T02:30:44;102196.34;;;6.46;70.34
30516;BME280;17297;54.022;10.760;2024-03-06T02:33:09;102190.75;;;6.49;70.40
30516;BME280;17297;54.022;10.760;2024-03-06T02:35:36;102192.44;;;6.50;70.47
30516;BME280;17297;54.022;10.760;2024-03-06T02:38:03;102194.00;;;6.53;70.43
30516;BME280;17297;54.022;10.760;2024-03-06T02:40:30;102195.56;;;6.55;70.26
30516;BME280;17297;54.022;10.760;2024-03-06T02:42:55;102200.06;;;6.55;70.29
30516;BME280;17297;54.022;10.760;2024-03-06T02:45:21;102198.25;;;6.55;70.23
30516;BME280;17297;54.022;10.760;2024-03-06T02:47:46;102196.41;;;6.56;70.21
30516;BME280;17297;54.022;10.760;2024-03-06T02:50:12;102203.31;;;6.58;70.24
30516;BME280;17297;54.022;10.760;2024-03-06T02:52:39;102189.22;;;6.56;70.09
30516;BME280;17297;54.022;10.760;2024-03-06T02:55:04;102197.13;;;6.58;70.40
30516;BME280;17297;54.022;10.760;2024-03-06T02:57:30;102197.72;;;6.61;70.19
30516;BME280;17297;54.022;10.760;2024-03-06T02:59:56;102206.44;;;6.63;70.41
30516;BME280;17297;54.022;10.760;2024-03-06T03:02:21;102203.66;;;6.65;70.05
30516;BME280;17297;54.022;10.760;2024-03-06T03:04:49;102203.50;;;6.66;70.15
30516;BME280;17297;54.022;10.760;2024-03-06T03:07:14;102205.22;;;6.67;70.00
30516;BME280;17297;54.022;10.760;2024-03-06T03:09:39;102209.56;;;6.68;70.18
30516;BME280;17297;54.022;10.760;2024-03-06T03:12:05;102208.72;;;6.68;70.17
30516;BME280;17297;54.022;10.760;2024-03-06T03:14:30;102211.41;;;6.68;70.22
30516;BME280;17297;54.022;10.760;2024-03-06T03:16:56;102215.75;;;6.69;70.07
30516;BME280;17297;54.022;10.760;2024-03-06T03:19:22;102213.09;;;6.69;70.13
30516;BME280;17297;54.022;10.760;2024-03-06T03:21:47;102214.66;;;6.71;70.29
30516;BME280;17297;54.022;10.760;2024-03-06T03:24:13;102208.31;;;6.72;70.36
30516;BME280;17297;54.022;10.760;2024-03-06T03:26:38;102203.69;;;6.75;70.35
30516;BME280;17297;54.022;10.760;2024-03-06T03:29:03;102204.53;;;6.75;70.26
30516;BME280;17297;54.022;10.760;2024-03-06T03:31:29;102215.81;;;6.79;70.47
30516;BME280;17297;54.022;10.760;2024-03-06T03:33:54;102218.38;;;6.80;70.45
30516;BME280;17297;54.022;10.760;2024-03-06T03:36:19;102226.25;;;6.82;70.37
30516;BME280;17297;54.022;10.760;2024-03-06T03:38:45;102226.25;;;6.82;70.64
30516;BME280;17297;54.022;10.760;2024-03-06T03:41:11;102228.81;;;6.83;70.53
30516;BME280;17297;54.022;10.760;2024-03-06T03:43:41;102226.97;;;6.84;70.68
30516;BME280;17297;54.022;10.760;2024-03-06T03:46:07;102233.06;;;6.86;70.86
30516;BME280;17297;54.022;10.760;2024-03-06T03:48:34;102231.22;;;6.86;70.85
30516;BME280;17297;54.022;10.760;2024-03-06T03:51:02;102232.91;;;6.87;70.81
30516;BME280;17297;54.022;10.760;2024-03-06T03:53:29;102232.06;;;6.87;70.90
30516;BME280;17297;54.022;10.760;2024-03-06T03:55:55;102240.09;;;6.87;70.96
30516;BME280;17297;54.022;10.760;2024-03-06T03:58:20;102234.75;;;6.87;70.83
30516;BME280;17297;54.022;10.760;2024-03-06T04:00:45;102236.56;;;6.86;71.06
30516;BME280;17297;54.022;10.760;2024-03-06T04:03:11;102240.09;;;6.87;70.86
30516;BME280;17297;54.022;10.760;2024-03-06T04:05:37;102238.41;;;6.86;70.99
30516;BME280;17297;54.022;10.760;2024-03-06T04:08:02;102237.69;;;6.84;70.77
30516;BME280;17297;54.022;10.760;2024-03-06T04:10:27;102239.50;;;6.83;71.08
30516;BME280;17297;54.022;10.760;2024-03-06T04:12:53;102244.28;;;6.80;70.86
30516;BME280;17297;54.022;10.760;2024-03-06T04:15:19;102250.59;;;6.79;70.91
30516;BME280;17297;54.022;10.760;2024-03-06T04:17:45;102245.38;;;6.77;70.98
30516;BME280;17297;54.022;10.760;2024-03-06T04:20:10;102250.84;;;6.76;71.17
30516;BME280;17297;54.022;10.760;2024-03-06T04:22:38;102250.16;;;6.74;71.04
30516;BME280;17297;54.022;10.760;2024-03-06T04:25:04;102255.63;;;6.72;71.22
30516;BME280;17297;54.022;10.760;2024-03-06T04:27:30;102261.13;;;6.70;71.24
30516;BME280;17297;54.022;10.760;2024-03-06T04:29:55;102250.53;;;6.69;71.17
30516;BME280;17297;54.022;10.760;2024-03-06T04:32:20;102262.22;;;6.68;71.20
30516;BME280;17297;54.022;10.760;2024-03-06T04:34:46;102266.84;;;6.66;71.31
30516;BME280;17297;54.022;10.760;2024-03-06T04:37:11;102259.81;;;6.65;71.41
30516;BME280;17297;54.022;10.760;2024-03-06T04:39:38;102265.16;;;6.65;71.51
30516;BME280;17297;54.022;10.760;2024-03-06T04:42:03;102266.00;;;6.65;71.39
30516;BME280;17297;54.022;10.760;2024-03-06T04:44:29;102271.22;;;6.67;71.39
30516;BME280;17297;54.022;10.760;2024-03-06T04:46:54;102268.41;;;6.68;71.50
30516;BME280;17297;54.022;10.760;2024-03-06T04:49:20;102276.31;;;6.70;71.54
30516;BME280;17297;54.022;10.760;2024-03-06T04:51:45;102278.72;;;6.73;71.68
30516;BME280;17297;54.022;10.760;2024-03-06T04:54:10;102278.47;;;6.76;71.79
30516;BME280;17297;54.022;10.760;2024-03-06T04:56:36;102279.16;;;6.78;71.81
30516;BME280;17297;54.022;10.760;2024-03-06T04:59:01;102293.00;;;6.83;71.68
30516;BME280;17297;54.022;10.760;2024-03-06T05:01:30;102289.22;;;6.86;71.61
30516;BME280;17297;54.022;10.760;2024-03-06T05:03:56;102294.31;;;6.89;71.58
30516;BME280;17297;54.022;10.760;2024-03-06T05:06:23;102288.97;;;6.89;71.70
30516;BME280;17297;54.022;10.760;2024-03-06T05:08:48;102294.19;;;6.90;71.88
30516;BME280;17297;54.022;10.760;2024-03-06T05:11:14;102282.63;;;6.90;71.66
30516;BME280;17297;54.022;10.760;2024-03-06T05:13:40;102288.72;;;6.92;71.75
30516;BME280;17297;54.022;10.760;2024-03-06T05:16:06;102300.09;;;6.94;71.70
30516;BME280;17297;54.022;10.760;2024-03-06T05:18:34;102298.28;;;6.94;71.59
30516;BME280;17297;54.022;10.760;2024-03-06T05:20:59;102300.00;;;6.96;71.73
30516;BME280;17297;54.022;10.760;2024-03-06T05:23:25;102300.09;;;6.94;71.68
30516;BME280;17297;54.022;10.760;2024-03-06T05:25:50;102303.78;;;6.93;71.42
30516;BME280;17297;54.022;10.760;2024-03-06T05:28:16;102296.84;;;6.90;71.44
30516;BME280;17297;54.022;10.760;2024-03-06T05:30:41;102306.97;;;6.87;71.51
30516;BME280;17297;54.022;10.760;2024-03-06T05:33:06;102303.72;;;6.83;71.57
30516;BME280;17297;54.022;10.760;2024-03-06T05:35:32;102303.13;;;6.80;71.55
30516;BME280;17297;54.022;10.760;2024-03-06T05:37:57;102298.88;;;6.77;71.53
30516;BME280;17297;54.022;10.760;2024-03-06T05:40:22;102304.34;;;6.76;71.56
30516;BME280;17297;54.022;10.760;2024-03-06T05:42:47;102309.00;;;6.74;71.61
30516;BME280;17297;54.022;10.760;2024-03-06T05:45:13;102317.13;;;6.72;71.76
30516;BME280;17297;54.022;10.760;2024-03-06T05:47:38;102317.28;;;6.70;71.50
30516;BME280;17297;54.022;10.760;2024-03-06T05:50:07;102322.75;;;6.69;71.80
30516;BME280;17297;54.022;10.760;2024-03-06T05:52:33;102322.75;;;6.69;71.74
30516;BME280;17297;54.022;10.760;2024-03-06T05:55:01;102324.56;;;6.68;71.71
30516;BME280;17297;54.022;10.760;2024-03-06T05:57:26;102329.91;;;6.68;71.47
30516;BME280;17297;54.022;10.760;2024-03-06T05:59:52;102330.19;;;6.65;71.57
30516;BME280;17297;54.022;10.760;2024-03-06T06:02:17;102333.94;;;6.63;71.47
30516;BME280;17297;54.022;10.760;2024-03-06T06:04:44;102336.03;;;6.59;71.22
30516;BME280;17297;54.022;10.760;2024-03-06T06:07:10;102340.78;;;6.56;71.00
30516;BME280;17297;54.022;10.760;2024-03-06T06:09:35;102334.59;;;6.55;70.75
30516;BME280;17297;54.022;10.760;2024-03-06T06:12:00;102329.25;;;6.55;70.36
30516;BME280;17297;54.022;10.760;2024-03-06T06:14:26;102333.88;;;6.53;69.90
30516;BME280;17297;54.022;10.760;2024-03-06T06:16:56;102340.06;;;6.54;69.76
30516;BME280;17297;54.022;10.760;2024-03-06T06:19:21;102339.22;;;6.53;69.25
30516;BME280;17297;54.022;10.760;2024-03-06T06:21:46;102345.41;;;6.54;69.20
30516;BME280;17297;54.022;10.760;2024-03-06T06:24:13;102346.28;;;6.54;68.80
30516;BME280;17297;54.022;10.760;2024-03-06T06:26:38;102348.09;;;6.54;68.75
30516;BME280;17297;54.022;10.760;2024-03-06T06:29:04;102353.56;;;6.52;68.33
30516;BME280;17297;54.022;10.760;2024-03-06T06:31:29;102362.44;;;6.53;68.47
30516;BME280;17297;54.022;10.760;2024-03-06T06:33:54;102360.75;;;6.52;68.40
30516;BME280;17297;54.022;10.760;2024-03-06T06:36:20;102370.06;;;6.57;68.21
30516;BME280;17297;54.022;10.760;2024-03-06T06:38:48;102372.75;;;6.57;68.00
30516;BME280;17297;54.022;10.760;2024-03-06T06:41:15;102381.75;;;6.56;67.91
30516;BME280;17297;54.022;10.760;2024-03-06T06:43:41;102378.09;;;6.57;67.88
30516;BME280;17297;54.022;10.760;2024-03-06T06:46:07;102389.25;;;6.62;68.11
30516;BME280;17297;54.022;10.760;2024-03-06T06:48:33;102397.03;;;6.65;67.89
30516;BME280;17297;54.022;10.760;2024-03-06T06:51:02;102401.13;;;6.69;67.84
30516;BME280;17297;54.022;10.760;2024-03-06T06:53:29;102403.81;;;6.69;67.15
30516;BME280;17297;54.022;10.760;2024-03-06T06:55:55;102410.53;;;6.64;66.73
30516;BME280;17297;54.022;10.760;2024-03-06T06:58:20;102406.53;;;6.58;66.27
30516;BME280;17297;54.022;10.760;2024-03-06T07:00:45;102412.75;;;6.59;66.76
30516;BME280;17297;54.022;10.760;2024-03-06T07:03:11;102412.00;;;6.57;66.41
30516;BME280;17297;54.022;10.760;2024-03-06T07:05:36;102424.78;;;6.53;65.98
30516;BME280;17297;54.022;10.760;2024-03-06T07:08:02;102423.09;;;6.52;66.25
30516;BME280;17297;54.022;10.760;2024-03-06T07:10:27;102423.94;;;6.53;66.53
30516;BME280;17297;54.022;10.760;2024-03-06T07:12:52;102431.56;;;6.57;66.62
30516;BME280;17297;54.022;10.760;2024-03-06T07:15:18;102430.47;;;6.60;66.52
30516;BME280;17297;54.022;10.760;2024-03-06T07:17:43;102433.03;;;6.61;66.35
30516;BME280;17297;54.022;10.760;2024-03-06T07:20:09;102435.56;;;6.63;66.28
30516;BME280;17297;54.022;10.760;2024-03-06T07:22:35;102438.13;;;6.64;66.45
30516;BME280;17297;54.022;10.760;2024-03-06T07:25:01;102439.97;;;6.64;66.37
30516;BME280;17297;54.022;10.760;2024-03-06T07:27:27;102440.66;;;6.66;66.17
30516;BME280;17297;54.022;10.760;2024-03-06T07:29:53;102442.25;;;6.68;66.31
30516;BME280;17297;54.022;10.760;2024-03-06T07:32:19;102449.91;;;6.73;66.57
30516;BME280;17297;54.022;10.760;2024-03-06T07:34:44;102459.38;;;6.77;66.55
30516;BME280;17297;54.022;10.760;2024-03-06T07:37:09;102456.56;;;6.79;66.27
30516;BME280;17297;54.022;10.760;2024-03-06T07:39:35;102460.94;;;6.80;66.00
30516;BME280;17297;54.022;10.760;2024-03-06T07:42:00;102463.63;;;6.80;66.09
30516;BME280;17297;54.022;10.760;2024-03-06T07:44:25;102462.78;;;6.79;66.17
30516;BME280;17297;54.022;10.760;2024-03-06T07:46:51;102468.13;;;6.79;66.06
30516;BME280;17297;54.022;10.760;2024-03-06T07:49:18;102477.84;;;6.80;65.78
30516;BME280;17297;54.022;10.760;2024-03-06T07:51:43;102468.13;;;6.79;65.58
30516;BME280;17297;54.022;10.760;2024-03-06T07:54:09;102474.69;;;6.75;65.48
30516;BME280;17297;54.022;10.760;2024-03-06T07:56:34;102476.66;;;6.73;65.55
30516;BME280;17297;54.022;10.760;2024-03-06T07:59:00;102476.75;;;6.71;65.82
30516;BME280;17297;54.022;10.760;2024-03-06T08:01:26;102483.81;;;6.72;65.93
30516;BME280;17297;54.022;10.760;2024-03-06T08:03:54;102484.69;;;6.73;65.66
30516;BME280;17297;54.022;10.760;2024-03-06T08:06:19;102493.41;;;6.75;65.73
30516;BME280;17297;54.022;10.760;2024-03-06T08:08:44;102501.44;;;6.75;65.92
30516;BME280;17297;54.022;10.760;2024-03-06T08:11:11;102508.50;;;6.76;65.68
30516;BME280;17297;54.022;10.760;2024-03-06T08:13:37;102511.19;;;6.76;65.89
30516;BME280;17297;54.022;10.760;2024-03-06T08:16:04;102512.97;;;6.76;65.77
30516;BME280;17297;54.022;10.760;2024-03-06T08:18:29;102513.72;;;6.78;65.55
30516;BME280;17297;54.022;10.760;2024-03-06T08:20:56;102515.41;;;6.79;65.78
30516;BME280;17297;54.022;10.760;2024-03-06T08:23:21;102518.69;;;6.82;65.73
30516;BME280;17297;54.022;10.760;2024-03-06T08:25:46;102517.56;;;6.85;65.56
30516;BME280;17297;54.022;10.760;2024-03-06T08:28:12;102516.63;;;6.86;65.40
30516;BME280;17297;54.022;10.760;2024-03-06T08:30:37;102517.47;;;6.86;65.69
30516;BME280;17297;54.022;10.760;2024-03-06T08:33:03;102523.53;;;6.88;65.43
30516;BME280;17297;54.022;10.760;2024-03-06T08:35:29;102525.25;;;6.89;65.57
30516;BME280;17297;54.022;10.760;2024-03-06T08:37:54;102525.09;;;6.91;65.28
30516;BME280;17297;54.022;10.760;2024-03-06T08:40:20;102533.03;;;6.92;65.48
30516;BME280;17297;54.022;10.760;2024-03-06T08:42:48;102533.03;;;6.92;65.44
30516;BME280;17297;54.022;10.760;2024-03-06T08:45:14;102529.34;;;6.93;65.46
30516;BME280;17297;54.022;10.760;2024-03-06T08:47:40;102531.91;;;6.95;65.43
30516;BME280;17297;54.022;10.760;2024-03-06T08:50:06;102542.47;;;6.97;65.46
30516;BME280;17297;54.022;10.760;2024-03-06T08:52:35;102543.31;;;6.97;65.48
30516;BME280;17297;54.022;10.760;2024-03-06T08:55:00;102548.56;;;6.99;65.27
30516;BME280;17297;54.022;10.760;2024-03-06T08:57:26;102547.72;;;6.98;65.30
30516;BME280;17297;54.022;10.760;2024-03-06T08:59:54;102544.06;;;6.99;65.07
30516;BME280;17297;54.022;10.760;2024-03-06T09:02:19;102548.69;;;6.97;64.96
30516;BME280;17297;54.022;10.760;2024-03-06T09:04:46;102548.69;;;6.97;64.85
30516;BME280;17297;54.022;10.760;2024-03-06T09:07:11;102547.72;;;6.98;64.85
30516;BME280;17297;54.022;10.760;2024-03-06T09:09:37;102556.47;;;7.00;64.85
30516;BME280;17297;54.022;10.760;2024-03-06T09:12:04;102553.66;;;7.02;64.87
30516;BME280;17297;54.022;10.760;2024-03-06T09:14:34;102559.03;;;7.02;64.85
30516;BME280;17297;54.022;10.760;2024-03-06T09:17:00;102562.41;;;7.04;64.97
30516;BME280;17297;54.022;10.760;2024-03-06T09:19:26;102564.22;;;7.03;64.75
30516;BME280;17297;54.022;10.760;2024-03-06T09:21:51;102571.31;;;7.04;64.78
30516;BME280;17297;54.022;10.760;2024-03-06T09:24:16;102567.50;;;7.07;64.97
30516;BME280;17297;54.022;10.760;2024-03-06T09:26:43;102566.53;;;7.08;64.73
30516;BME280;17297;54.022;10.760;2024-03-06T09:29:08;102579.09;;;7.07;64.58
30516;BME280;17297;54.022;10.760;2024-03-06T09:31:34;102586.25;;;7.07;64.49
30516;BME280;17297;54.022;10.760;2024-03-06T09:33:59;102585.38;;;7.06;64.79
30516;BME280;17297;54.022;10.760;2024-03-06T09:36:24;102588.91;;;7.07;64.77
30516;BME280;17297;54.022;10.760;2024-03-06T09:38:50;102594.16;;;7.08;64.63
30516;BME280;17297;54.022;10.760;2024-03-06T09:41:17;102596.84;;;7.08;64.56
30516;BME280;17297;54.022;10.760;2024-03-06T09:43:44;102597.09;;;7.05;64.56
30516;BME280;17297;54.022;10.760;2024-03-06T09:46:09;102599.88;;;7.04;64.52
30516;BME280;17297;54.022;10.760;2024-03-06T09:48:35;102592.97;;;7.01;64.33
30516;BME280;17297;54.022;10.760;2024-03-06T09:51:02;102600.25;;;6.99;64.44
30516;BME280;17297;54.022;10.760;2024-03-06T09:53:28;102601.25;;;6.98;64.36
30516;BME280;17297;54.022;10.760;2024-03-06T09:55:56;102603.19;;;6.96;64.62
30516;BME280;17297;54.022;10.760;2024-03-06T09:58:22;102604.03;;;6.97;64.55
30516;BME280;17297;54.022;10.760;2024-03-06T10:00:49;102608.38;;;6.98;64.73
30516;BME280;17297;54.022;10.760;2024-03-06T10:03:15;102603.91;;;6.98;64.42
30516;BME280;17297;54.022;10.760;2024-03-06T10:05:41;102601.25;;;6.98;64.54
30516;BME280;17297;54.022;10.760;2024-03-06T10:08:08;102606.59;;;6.98;64.67
30516;BME280;17297;54.022;10.760;2024-03-06T10:10:35;102615.72;;;6.96;64.46
30516;BME280;17297;54.022;10.760;2024-03-06T10:13:00;102614.25;;;6.91;64.47
30516;BME280;17297;54.022;10.760;2024-03-06T10:15:26;102621.31;;;6.92;64.63
30516;BME280;17297;54.022;10.760;2024-03-06T10:18:10;102623.13;;;6.92;64.47
30516;BME280;17297;54.022;10.760;2024-03-06T10:20:37;102623.97;;;6.92;64.36
30516;BME280;17297;54.022;10.760;2024-03-06T10:23:02;102625.69;;;6.93;64.48
30516;BME280;17297;54.022;10.760;2024-03-06T10:25:27;102628.25;;;6.95;64.44
30516;BME280;17297;54.022;10.760;2024-03-06T10:30:41;102629.44;;;6.91;64.71
30516;BME280;17297;54.022;10.760;2024-03-06T10:33:11;102633.09;;;6.90;64.80
30516;BME280;17297;54.022;10.760;2024-03-06T10:35:39;102637.59;;;6.89;64.82
30516;BME280;17297;54.022;10.760;2024-03-06T10:38:06;102635.19;;;6.86;65.08
30516;BME280;17297;54.022;10.760;2024-03-06T10:40:34;102631.53;;;6.87;65.29
30516;BME280;17297;54.022;10.760;2024-03-06T10:43:00;102636.03;;;6.87;65.21
30516;BME280;17297;54.022;10.760;2024-03-06T10:45:47;102640.53;;;6.86;65.10
30516;BME280;17297;54.022;10.760;2024-03-06T10:48:13;102645.75;;;6.88;65.14
30516;BME280;17297;54.022;10.760;2024-03-06T10:50:40;102653.41;;;6.92;65.08
30516;BME280;17297;54.022;10.760;2024-03-06T10:53:10;102652.09;;;6.98;65.02
30516;BME280;17297;54.022;10.760;2024-03-06T10:55:36;102648.19;;;7.02;64.86
30516;BME280;17297;54.022;10.760;2024-03-06T10:58:06;102646.25;;;7.04;64.57
30516;BME280;17297;54.022;10.760;2024-03-06T11:00:36;102646.94;;;7.06;64.63
30516;BME280;17297;54.022;10.760;2024-03-06T11:03:05;102646.84;;;7.08;64.59
30516;BME280;17297;54.022;10.760;2024-03-06T11:05:35;102648.41;;;7.10;64.58
30516;BME280;17297;54.022;10.760;2024-03-06T11:08:01;102654.47;;;7.12;64.61
30516;BME280;17297;54.022;10.760;2024-03-06T11:10:33;102647.19;;;7.14;64.32
30516;BME280;17297;54.022;10.760;2024-03-06T11:12:59;102650.59;;;7.16;64.28
30516;BME280;17297;54.022;10.760;2024-03-06T11:15:25;102648.63;;;7.18;64.20
30516;BME280;17297;54.022;10.760;2024-03-06T11:17:50;102653.75;;;7.22;64.13
30516;BME280;17297;54.022;10.760;2024-03-06T11:20:17;102657.16;;;7.24;64.03
30516;BME280;17297;54.022;10.760;2024-03-06T11:28:11;102658.84;;;7.25;63.91
30516;BME280;17297;54.022;10.760;2024-03-06T11:31:08;102657.75;;;7.27;64.04
30516;BME280;17297;54.022;10.760;2024-03-06T11:33:45;102659.31;;;7.30;63.87
30516;BME280;17297;54.022;10.760;2024-03-06T11:36:21;102660.19;;;7.30;63.84
30516;BME280;17297;54.022;10.760;2024-03-06T11:38:50;102668.06;;;7.32;63.79
30516;BME280;17297;54.022;10.760;2024-03-06T11:41:22;102672.31;;;7.34;63.68
30516;BME280;17297;54.022;10.760;2024-03-06T11:43:48;102666.00;;;7.35;63.67
30516;BME280;17297;54.022;10.760;2024-03-06T11:46:40;102670.63;;;7.33;63.55
30516;BME280;17297;54.022;10.760;2024-03-06T11:49:17;102670.16;;;7.28;63.64
30516;BME280;17297;54.022;10.760;2024-03-06T11:51:46;102675.03;;;7.23;63.32
30516;BME280;17297;54.022;10.760;2024-03-06T11:54:11;102678.06;;;7.18;63.53
30516;BME280;17297;54.022;10.760;2024-03-06T11:56:39;102675.66;;;7.15;63.54
30516;BME280;17297;54.022;10.760;2024-03-06T11:59:04;102674.78;;;7.15;63.62
30516;BME280;17297;54.022;10.760;2024-03-06T12:01:31;102673.94;;;7.14;63.65
30516;BME280;17297;54.022;10.760;2024-03-06T12:03:57;102681.97;;;7.14;63.48
30516;BME280;17297;54.022;10.760;2024-03-06T12:06:23;102671.63;;;7.10;63.51
30516;BME280;17297;54.022;10.760;2024-03-06T12:08:48;102672.13;;;7.04;63.61
30516;BME280;17297;54.022;10.760;2024-03-06T12:11:13;102680.63;;;6.98;63.65
30516;BME280;17297;54.022;10.760;2024-03-06T12:13:41;102684.03;;;6.88;63.91
30516;BME280;17297;54.022;10.760;2024-03-06T12:16:07;102687.69;;;6.87;63.89
30516;BME280;17297;54.022;10.760;2024-03-06T12:18:33;102681.88;;;6.82;63.92
30516;BME280;17297;54.022;10.760;2024-03-06T12:21:00;102681.16;;;6.80;64.04
30516;BME280;17297;54.022;10.760;2024-03-06T12:23:28;102682.97;;;6.80;64.02
30516;BME280;17297;54.022;10.760;2024-03-06T12:26:07;102681.16;;;6.80;64.42
30516;BME280;17297;54.022;10.760;2024-03-06T12:28:39;102683.94;;;6.79;64.18
30516;BME280;17297;54.022;10.760;2024-03-06T12:31:05;102682.22;;;6.78;64.15
30516;BME280;17297;54.022;10.760;2024-03-06T12:33:33;102684.91;;;6.78;64.33
30516;BME280;17297;54.022;10.760;2024-03-06T12:36:05;102686.59;;;6.79;64.17
30516;BME280;17297;54.022;10.760;2024-03-06T12:38:31;102681.50;;;6.76;64.16
30516;BME280;17297;54.022;10.760;2024-03-06T12:40:57;102681.38;;;6.77;64.09
30516;BME280;17297;54.022;10.760;2024-03-06T12:43:24;102685.75;;;6.78;64.26
30516;BME280;17297;54.022;10.760;2024-03-06T12:45:49;102690.25;;;6.78;64.19
30516;BME280;17297;54.022;10.760;2024-03-06T12:48:14;102684.81;;;6.79;64.28
30516;BME280;17297;54.022;10.760;2024-03-06T12:50:40;102679.91;;;6.84;64.20
30516;BME280;17297;54.022;10.760;2024-03-06T12:53:07;102680.53;;;6.88;64.11
30516;BME280;17297;54.022;10.760;2024-03-06T12:55:32;102679.31;;;6.92;64.15